Home > Products > Valid Products > MTR

000
SAUS45 KREV 260857
MTRDRA
METAR KDRA 260852Z AUTO 17013G19KT 10SM CLR 21/M01 A2996 RMK AO2
SLP101 T02061011 58005





000
SAUS45 KREV 260757
MTRDRA
METAR KDRA 260752Z AUTO 14007KT 10SM CLR 21/01 A2996 RMK AO2 SLP103
T02060011 402670128





000
SAUS45 KREV 260657
MTRDRA
METAR KDRA 260652Z AUTO 14007KT 10SM CLR 20/03 A2997 RMK AO2 PK WND
20029/0622 SLP107 T02000028





000
SAUS45 KREV 260557
MTRDRA
METAR KDRA 260552Z AUTO 22011G24KT 10SM CLR 21/03 A2997 RMK AO2
SLP108 T02060028 10250 20206 50004





000
SAUS45 KREV 260557
MTRDRA
METAR KDRA 260552Z AUTO 22011G24KT 10SM CLR 21/03 A2997 RMK AO2
SLP108 T02060028 10250 20206 50004





000
SAUS45 KREV 260457
MTRDRA
METAR KDRA 260452Z AUTO 22014G23KT 10SM CLR 22/03 A2998 RMK AO2
SLP110 T02170033





000
SAUS45 KREV 260457
MTRDRA
METAR KDRA 260452Z AUTO 22014G23KT 10SM CLR 22/03 A2998 RMK AO2
SLP110 T02170033





000
SAUS45 KREV 260357
MTRDRA
METAR KDRA 260352Z AUTO 22013KT 10SM CLR 22/03 A2997 RMK AO2 SLP107
T02170033





000
SAUS45 KREV 260357
MTRDRA
METAR KDRA 260352Z AUTO 22013KT 10SM CLR 22/03 A2997 RMK AO2 SLP107
T02170033





000
SAUS45 KREV 260257
MTRDRA
METAR KDRA 260252Z AUTO 22012KT 10SM CLR 22/03 A2996 RMK AO2 SLP106
T02220028 55004





000
SAUS45 KREV 260157
MTRDRA
METAR KDRA 260152Z AUTO 21017G28KT 10SM CLR 23/03 A2996 RMK AO2 PK
WND 21032/0125 SLP109 T02330028





000
SAUS45 KREV 260157
MTRDRA
METAR KDRA 260152Z AUTO 21017G28KT 10SM CLR 23/03 A2996 RMK AO2 PK
WND 21032/0125 SLP109 T02330028





000
SAUS45 KREV 260057
MTRDRA
METAR KDRA 260052Z AUTO 21018G25KT 10SM CLR 24/02 A2996 RMK AO2 PK
WND 21028/0036 SLP107 T02390022





000
SAUS45 KREV 252357
MTRDRA
METAR KDRA 252352Z AUTO 19019G27KT 10SM CLR 25/03 A2997 RMK AO2 PK
WND 21028/2319 SLP114 T02500033 10267 20239 56014





000
SAUS45 KREV 252257
MTRDRA
METAR KDRA 252252Z AUTO 19020G31KT 10SM CLR 26/03 A2998 RMK AO2 PK
WND 19031/2250 SLP115 T02610028





000
SAUS45 KREV 252157
MTRDRA
METAR KDRA 252152Z AUTO 20021G28KT 10SM CLR 27/03 A3000 RMK AO2 PK
WND 18029/2109 SLP119 T02670028





000
SAUS45 KREV 252057
MTRDRA
METAR KDRA 252052Z AUTO 19014G28KT 10SM CLR 26/03 A3002 RMK AO2 PK
WND 20034/2006 SLP129 T02610033 58019





000
SAUS45 KREV 251957
MTRDRA
METAR KDRA 251952Z AUTO 19018G25KT 10SM CLR 26/03 A3004 RMK AO2 PK
WND 21028/1916 SLP133 T02610033





000
SAUS45 KREV 251857
MTRDRA
METAR KDRA 251852Z AUTO 20020G26KT 10SM CLR 26/03 A3007 RMK AO2 PK
WND 20028/1819 SLP145 T02560033





000
SAUS45 KREV 251857
MTRDRA
METAR KDRA 251852Z AUTO 20020G26KT 10SM CLR 26/03 A3007 RMK AO2 PK
WND 20028/1819 SLP145 T02560033





000
SAUS45 KREV 251757
MTRDRA
METAR KDRA 251752Z AUTO 19013G23KT 10SM CLR 24/03 A3008 RMK AO2
SLP148 T02440033 10244 20128 50004





000
SAUS45 KREV 251757
MTRDRA
METAR KDRA 251752Z AUTO 19013G23KT 10SM CLR 24/03 A3008 RMK AO2
SLP148 T02440033 10244 20128 50004





000
SAUS45 KREV 251657
MTRDRA
METAR KDRA 251652Z AUTO 21013KT 10SM CLR 23/03 A3010 RMK AO2 PK WND
22031/1559 SLP154 T02330033





000
SAUS45 KREV 251657
MTRDRA
METAR KDRA 251652Z AUTO 21013KT 10SM CLR 23/03 A3010 RMK AO2 PK WND
22031/1559 SLP154 T02330033





000
SAUS45 KREV 251557
MTRDRA
METAR KDRA 251552Z AUTO 20013KT 10SM CLR 22/03 A3009 RMK AO2 SLP150
T02220033





000
SAUS45 KREV 251457
MTRDRA
METAR KDRA 251452Z AUTO 18013KT 10SM CLR 21/03 A3007 RMK AO2 SLP143
T02060033 53009





000
SAUS45 KREV 251257
MTRDRA
METAR KDRA 251252Z AUTO 00000KT 10SM CLR 16/01 A3004 RMK AO2 SLP133
T01560011





000
SAUS45 KREV 251157
MTRDRA
METAR KDRA 251152Z AUTO 02005KT 10SM CLR 14/01 A3004 RMK AO2 SLP131
T01440006 10178 20133 56010





000
SAUS45 KREV 251157
MTRDRA
METAR KDRA 251152Z AUTO 02005KT 10SM CLR 14/01 A3004 RMK AO2 SLP131
T01440006 10178 20133 56010





000
SAUS45 KREV 251057
MTRDRA
METAR KDRA 251052Z AUTO 00000KT 10SM CLR 14/00 A3004 RMK AO2 SLP132
T01440000





000
SAUS45 KREV 251057
MTRDRA
METAR KDRA 251052Z AUTO 00000KT 10SM CLR 14/00 A3004 RMK AO2 SLP132
T01440000





000
SAUS45 KREV 250957
MTRDRA
METAR KDRA 250952Z AUTO 02004KT 10SM CLR 15/00 A3006 RMK AO2 SLP138
T01500000





000
SAUS45 KREV 250857
MTRDRA
METAR KDRA 250852Z AUTO 14005KT 10SM CLR 13/00 A3007 RMK AO2 SLP144
T01330000 53002





000
SAUS45 KREV 250757
MTRDRA
METAR KDRA 250752Z AUTO 07006KT 10SM CLR 17/01 A3007 RMK AO2 SLP141
T01670011 403000100





000
SAUS45 KREV 250657
MTRDRA
METAR KDRA 250652Z AUTO 00000KT 10SM CLR 16/01 A3006 RMK AO2 SLP140
T01610011





000
SAUS45 KREV 250557
MTRDRA
METAR KDRA 250552Z AUTO 09003KT 10SM CLR 18/02 A3006 RMK AO2 SLP141
T01780017 10294 20172 50007





000
SAUS45 KREV 250457
MTRDRA
METAR KDRA 250452Z AUTO 08003KT 10SM CLR 17/01 A3006 RMK AO2 SLP146
T01720011





000
SAUS45 KREV 250357
MTRDRA
METAR KDRA 250352Z AUTO 00000KT 10SM CLR 20/02 A3005 RMK AO2 SLP141
T02000017





000
SAUS45 KREV 250357
MTRDRA
METAR KDRA 250352Z AUTO 00000KT 10SM CLR 20/02 A3005 RMK AO2 SLP141
T02000017





000
SAUS45 KREV 250257
MTRDRA
METAR KDRA 250252Z AUTO VRB05KT 10SM CLR 22/02 A3004 RMK AO2 SLP140
T02170022 53010





000
SAUS45 KREV 250157
MTRDRA
METAR KDRA 250152Z AUTO 13007KT 10SM CLR 23/01 A3002 RMK AO2 SLP137
T02330011





000
SAUS45 KREV 250057
MTRDRA
METAR KDRA 250052Z AUTO 12009KT 10SM CLR 27/01 A3001 RMK AO2 SLP127
T02670006





000
SAUS45 KREV 242357
MTRDRA
METAR KDRA 242352Z AUTO 11009KT 230V130 10SM CLR 29/M02 A3001 RMK
AO2 SLP123 T02941017 10300 20244 56016





000
SAUS45 KREV 242256
MTRDRA
METAR KDRA 242252Z AUTO 13006KT 10SM CLR 29/M01 A3002 RMK AO2 SLP128
T02941011





000
SAUS45 KREV 242157
MTRDRA
METAR KDRA 242152Z AUTO 04003KT 10SM CLR 29/M01 A3004 RMK AO2 SLP132
T02891006





000
SAUS45 KREV 242057
MTRDRA
METAR KDRA 242052Z AUTO 14003KT 10SM CLR 28/M01 A3006 RMK AO2 SLP140
T02831006 58025





000
SAUS45 KREV 241957
MTRDRA
METAR KDRA 241952Z AUTO 12010KT 10SM CLR 27/01 A3009 RMK AO2 SLP151
T02720006





000
SAUS45 KREV 241957
MTRDRA
METAR KDRA 241952Z AUTO 12010KT 10SM CLR 27/01 A3009 RMK AO2 SLP151
T02720006





000
SAUS45 KREV 241857
MTRDRA
METAR KDRA 241852Z AUTO 13011KT 10SM CLR 26/01 A3012 RMK AO2 WSHFT
1804 SLP162 T02610011





000
SAUS45 KREV 241826
MTRDRA
SPECI KDRA 241821Z AUTO 12012KT 10SM CLR 26/01 A3013 RMK AO2 WSHFT
1804 T02560011





000
SAUS45 KREV 241757
MTRDRA
METAR KDRA 241752Z AUTO 00000KT 10SM CLR 24/01 A3014 RMK AO2 SLP171
T02440011 10244 20100 50003





000
SAUS45 KREV 241657
MTRDRA
METAR KDRA 241652Z AUTO VRB03KT 10SM CLR 22/01 A3015 RMK AO2 SLP177
T02170006





000
SAUS45 KREV 241557
MTRDRA
METAR KDRA 241552Z AUTO 36004KT 10SM CLR 18/00 A3015 RMK AO2 SLP177
T01830000





000
SAUS45 KREV 241458
MTRDRA
METAR KDRA 241452Z AUTO 01005KT 10SM CLR 13/M01 A3013 RMK AO2 SLP174
T01331006





000
SAUS45 KREV 241257
MTRDRA
METAR KDRA 241252Z AUTO 01003KT 10SM CLR 11/M01 A3009 RMK AO2 SLP158
T01111011 $





000
SAUS45 KREV 241157
MTRDRA
METAR KDRA 241152Z AUTO 03004KT 10SM CLR 12/M02 A3009 RMK AO2 SLP154
T01171017 10167 20111 53000





000
SAUS45 KREV 241057
MTRDRA
METAR KDRA 241052Z AUTO 02005KT 10SM CLR 11/M02 A3008 RMK AO2 SLP150
T01111017





000
SAUS45 KREV 241057
MTRDRA
METAR KDRA 241052Z AUTO 02005KT 10SM CLR 11/M02 A3008 RMK AO2 SLP150
T01111017





000
SAUS45 KREV 240957
MTRDRA
METAR KDRA 240952Z AUTO 15003KT 10SM CLR 13/M02 A3008 RMK AO2 SLP148
T01281017





000
SAUS45 KREV 240957
MTRDRA
METAR KDRA 240952Z AUTO 15003KT 10SM CLR 13/M02 A3008 RMK AO2 SLP148
T01281017





000
SAUS45 KREV 240858
MTRDRA
METAR KDRA 240852Z AUTO 03005KT 10SM CLR 14/M01 A3009 RMK AO2 SLP151
T01391011 51004





000
SAUS45 KREV 240757
MTRDRA
METAR KDRA 240752Z AUTO 00000KT 10SM CLR 14/M01 A3009 RMK AO2 SLP153
T01391011 402890094





000
SAUS45 KREV 240657
MTRDRA
METAR KDRA 240652Z AUTO 07007KT 10SM CLR 15/M01 A3008 RMK AO2 SLP149
T01501011





000
SAUS45 KREV 240557
MTRDRA
METAR KDRA 240552Z AUTO 07005KT 10SM CLR 16/M02 A3007 RMK AO2 SLP150
T01561017 10272 20150 51009





000
SAUS45 KREV 240457
MTRDRA
METAR KDRA 240452Z AUTO 00000KT 10SM CLR 16/M02 A3007 RMK AO2 SLP148
T01611022





000
SAUS45 KREV 240457
MTRDRA
METAR KDRA 240452Z AUTO 00000KT 10SM CLR 16/M02 A3007 RMK AO2 SLP148
T01611022





000
SAUS45 KREV 240357
MTRDRA
METAR KDRA 240352Z AUTO 04004KT 10SM CLR 19/M01 A3005 RMK AO2 SLP145
T01941011





000
SAUS45 KREV 240357
MTRDRA
METAR KDRA 240352Z AUTO 04004KT 10SM CLR 19/M01 A3005 RMK AO2 SLP145
T01941011





000
SAUS45 KREV 240257
MTRDRA
METAR KDRA 240252Z AUTO 10006KT 10SM CLR 19/M02 A3004 RMK AO2 SLP145
T01941017 53009





000
SAUS45 KREV 240257
MTRDRA
METAR KDRA 240252Z AUTO 10006KT 10SM CLR 19/M02 A3004 RMK AO2 SLP145
T01941017 53009





000
SAUS45 KREV 240157
MTRDRA
METAR KDRA 240152Z AUTO 14010KT 10SM CLR 23/M02 A3003 RMK AO2 SLP140
T02281017





000
SAUS45 KREV 240157
MTRDRA
METAR KDRA 240152Z AUTO 14010KT 10SM CLR 23/M02 A3003 RMK AO2 SLP140
T02281017





000
SAUS45 KREV 240057
MTRDRA
METAR KDRA 240052Z AUTO 18006KT 10SM CLR 25/M02 A3003 RMK AO2 SLP135
T02501022





000
SAUS45 KREV 232357
MTRDRA
METAR KDRA 232352Z AUTO 14006KT 10SM CLR 27/M04 A3002 RMK AO2 SLP129
T02721039 10289 20222 56011





000
SAUS45 KREV 232257
MTRDRA
METAR KDRA 232252Z AUTO 13005KT 10SM CLR 27/M04 A3002 RMK AO2 PK WND
22026/2202 SLP130 T02721039





000
SAUS45 KREV 232156
MTRDRA
METAR KDRA 232152Z AUTO 22014KT 10SM CLR 29/M04 A3003 RMK AO2 SLP132
T02891039





000
SAUS45 KREV 232057
MTRDRA
METAR KDRA 232052Z AUTO VRB03KT 10SM CLR 27/M04 A3005 RMK AO2 SLP139
T02721039 58024





000
SAUS45 KREV 231957
MTRDRA
METAR KDRA 231952Z AUTO 00000KT 10SM CLR 26/M04 A3008 RMK AO2 SLP152
T02611039





000
SAUS45 KREV 231957
MTRDRA
METAR KDRA 231952Z AUTO 00000KT 10SM CLR 26/M04 A3008 RMK AO2 SLP152
T02611039





000
SAUS45 KREV 231857
MTRDRA
METAR KDRA 231852Z AUTO 00000KT 10SM CLR 24/M04 A3011 RMK AO2 SLP162
T02441044





000
SAUS45 KREV 231857
MTRDRA
METAR KDRA 231852Z AUTO 00000KT 10SM CLR 24/M04 A3011 RMK AO2 SLP162
T02441044





000
SAUS45 KREV 231757
MTRDRA
METAR KDRA 231752Z AUTO VRB03KT 10SM CLR 22/M05 A3013 RMK AO2 SLP170
T02221050 10222 20094 51006





000
SAUS45 KREV 231757
MTRDRA
METAR KDRA 231752Z AUTO VRB03KT 10SM CLR 22/M05 A3013 RMK AO2 SLP170
T02221050 10222 20094 51006





000
SAUS45 KREV 231657
MTRDRA
METAR KDRA 231652Z AUTO 34003KT 10SM CLR 20/M06 A3013 RMK AO2 SLP171
T02001056





000
SAUS45 KREV 231657
MTRDRA
METAR KDRA 231652Z AUTO 34003KT 10SM CLR 20/M06 A3013 RMK AO2 SLP171
T02001056





000
SAUS45 KREV 231557
MTRDRA
METAR KDRA 231552Z AUTO 15004KT 10SM CLR 16/M06 A3013 RMK AO2 SLP176
T01561061





000
SAUS45 KREV 231457
MTRDRA
METAR KDRA 231452Z AUTO 35005KT 10SM CLR 12/M06 A3011 RMK AO2 SLP170
T01221056 53012





000
SAUS45 KREV 231457
MTRDRA
METAR KDRA 231452Z AUTO 35005KT 10SM CLR 12/M06 A3011 RMK AO2 SLP170
T01221056 53012





000
SAUS45 KREV 231357
MTRDRA
METAR KDRA 231352Z AUTO 13005KT 10SM CLR 10/M06 A3009 RMK AO2 SLP163
T01001061





000
SAUS45 KREV 231257
MTRDRA
METAR KDRA 231252Z AUTO 35003KT 10SM CLR 11/M06 A3008 RMK AO2 SLP153
T01061061





000
SAUS45 KREV 231157
MTRDRA
METAR KDRA 231152Z AUTO 00000KT 10SM CLR 11/M06 A3007 RMK AO2 SLP150
T01111061 10156 20106 58005





000
SAUS45 KREV 231057
MTRDRA
METAR KDRA 231052Z AUTO 33003KT 10SM CLR 11/M07 A3008 RMK AO2 SLP151
T01111067





000
SAUS45 KREV 230957
MTRDRA
METAR KDRA 230952Z AUTO 33004KT 10SM CLR 11/M07 A3008 RMK AO2 SLP153
T01111067





000
SAUS45 KREV 230957
MTRDRA
METAR KDRA 230952Z AUTO 33004KT 10SM CLR 11/M07 A3008 RMK AO2 SLP153
T01111067





    US Dept of Commerce
    National Oceanic and Atmospheric Administration
    National Weather Service
    1325 East West Highway
    Silver Spring, MD 20910
    Page Author: NWS Internet Services Team
Disclaimer
Information Quality
Credits
Glossary
Privacy Policy
Freedom of Information Act (FOIA)
About Us
Career Opportunities